createdAt,value
2017-11-03T00:00:45.805Z,10.30
2017-11-03T00:03:12.203Z,10.40
2017-11-03T00:05:38.846Z,10.30
2017-11-03T00:08:05.999Z,10.40
2017-11-03T00:10:33.256Z,10.40
2017-11-03T00:12:59.507Z,10.40
2017-11-03T00:15:25.767Z,10.30
2017-11-03T00:17:52.800Z,10.40
2017-11-03T00:20:27.026Z,10.40
2017-11-03T00:22:54.333Z,10.40
2017-11-03T00:25:20.616Z,10.30
2017-11-03T00:27:47.625Z,10.30
2017-11-03T00:30:13.962Z,10.30
2017-11-03T00:32:40.350Z,10.30
2017-11-03T00:35:06.620Z,10.40
2017-11-03T00:37:32.887Z,10.30
2017-11-03T00:40:00.776Z,10.30
2017-11-03T00:42:27.047Z,10.30
2017-11-03T00:44:54.295Z,10.30
2017-11-03T00:47:20.771Z,10.30
2017-11-03T00:49:47.048Z,10.30
2017-11-03T00:52:13.524Z,10.30
2017-11-03T00:54:40.547Z,10.40
2017-11-03T00:57:06.943Z,10.40
2017-11-03T00:59:33.280Z,10.50
2017-11-03T01:01:59.648Z,10.50
2017-11-03T01:04:26.013Z,10.50
2017-11-03T01:06:53.178Z,10.40
2017-11-03T01:09:19.452Z,10.40
2017-11-03T01:11:47.214Z,10.40
2017-11-03T01:14:13.465Z,10.40
2017-11-03T01:16:39.718Z,10.30
2017-11-03T01:19:06.918Z,10.30
2017-11-03T01:21:33.509Z,10.30
2017-11-03T01:23:59.773Z,10.30
2017-11-03T01:26:26.069Z,10.40
2017-11-03T01:28:52.399Z,10.40
2017-11-03T01:31:18.675Z,10.40
2017-11-03T01:33:45.212Z,10.40
2017-11-03T01:36:11.516Z,10.40
2017-11-03T01:38:37.827Z,10.30
2017-11-03T01:41:04.047Z,10.30
2017-11-03T01:43:31.938Z,10.30
2017-11-03T01:45:58.259Z,10.30
2017-11-03T01:48:24.547Z,10.30
2017-11-03T01:50:50.836Z,10.30
2017-11-03T01:53:17.284Z,10.30
2017-11-03T01:55:43.556Z,10.20
2017-11-03T01:58:09.808Z,10.20
2017-11-03T02:00:36.074Z,10.20
2017-11-03T02:03:02.305Z,10.20
2017-11-03T02:05:28.552Z,10.30
2017-11-03T02:07:54.806Z,10.30
2017-11-03T02:10:21.060Z,10.20
2017-11-03T02:12:47.335Z,10.20
2017-11-03T02:15:13.592Z,10.30
2017-11-03T02:17:40.918Z,10.30
2017-11-03T02:20:07.277Z,10.30
2017-11-03T02:22:34.296Z,10.20
2017-11-03T02:25:00.563Z,10.20
2017-11-03T02:27:27.581Z,10.30
2017-11-03T02:29:53.825Z,10.30
2017-11-03T02:32:20.097Z,10.30
2017-11-03T02:34:46.336Z,10.30
2017-11-03T02:37:13.481Z,10.20
2017-11-03T02:39:39.753Z,10.30
2017-11-03T02:42:06.025Z,10.30
2017-11-03T02:44:32.293Z,10.30
2017-11-03T02:46:58.725Z,10.30
2017-11-03T02:49:25.011Z,10.30
2017-11-03T02:51:51.267Z,10.30
2017-11-03T02:54:17.533Z,10.30
2017-11-03T02:56:43.832Z,10.40
2017-11-03T02:59:10.085Z,10.40
2017-11-03T03:01:36.345Z,10.20
2017-11-03T03:04:13.307Z,10.20
2017-11-03T03:06:41.030Z,10.30
2017-11-03T03:09:07.281Z,10.30
2017-11-03T03:11:33.535Z,10.30
2017-11-03T03:14:00.514Z,10.30
2017-11-03T03:16:26.747Z,10.20
2017-11-03T03:18:52.973Z,10.30
2017-11-03T03:21:19.229Z,10.30
2017-11-03T03:23:45.536Z,10.20
2017-11-03T03:26:11.774Z,10.30
2017-11-03T03:28:38.020Z,10.30
2017-11-03T03:31:04.313Z,10.20
2017-11-03T03:33:31.307Z,10.20
2017-11-03T03:35:57.566Z,10.20
2017-11-03T03:38:23.961Z,10.10
2017-11-03T03:40:50.217Z,10.10
2017-11-03T03:43:16.488Z,10.10
2017-11-03T03:45:42.773Z,10.10
2017-11-03T03:48:09.873Z,10.10
2017-11-03T03:50:36.108Z,10.20
2017-11-03T03:53:02.465Z,10.10
2017-11-03T03:55:28.700Z,10.10
2017-11-03T03:57:54.926Z,10.10
2017-11-03T04:00:21.207Z,10.10
2017-11-03T04:02:48.187Z,10.10
2017-11-03T04:05:14.463Z,10.10
2017-11-03T04:07:40.715Z,10.10
2017-11-03T04:10:07.794Z,10.10
2017-11-03T04:12:34.058Z,10.10
2017-11-03T04:15:00.299Z,10.00
2017-11-03T04:17:28.049Z,10.00
2017-11-03T04:19:54.303Z,10.00
2017-11-03T04:22:21.328Z,9.90
2017-11-03T04:24:47.743Z,9.90
2017-11-03T04:27:13.959Z,9.80
2017-11-03T04:29:40.229Z,9.90
2017-11-03T04:32:06.618Z,9.90
2017-11-03T04:34:32.850Z,9.90
2017-11-03T04:36:59.092Z,9.90
2017-11-03T04:39:25.384Z,9.90
2017-11-03T04:41:51.750Z,9.90
2017-11-03T04:44:17.992Z,9.90
2017-11-03T04:46:44.231Z,9.90
2017-11-03T04:49:10.462Z,9.80
2017-11-03T04:51:36.754Z,9.80
2017-11-03T04:54:03.044Z,9.80
2017-11-03T04:56:30.108Z,9.80
2017-11-03T04:58:58.017Z,9.80
2017-11-03T05:01:24.306Z,9.80
2017-11-03T05:03:50.641Z,9.80
2017-11-03T05:06:17.069Z,9.70
2017-11-03T05:08:44.877Z,9.60
2017-11-03T05:11:11.121Z,9.60
2017-11-03T05:13:38.438Z,9.70
2017-11-03T05:16:04.713Z,9.70
2017-11-03T05:18:31.736Z,9.70
2017-11-03T05:20:58.004Z,9.70
2017-11-03T05:23:25.036Z,9.70
2017-11-03T05:25:51.314Z,9.70
2017-11-03T05:28:17.576Z,9.70
2017-11-03T05:30:43.860Z,9.70
2017-11-03T05:33:11.130Z,9.80
2017-11-03T05:35:38.252Z,9.70
2017-11-03T05:38:05.349Z,9.70
2017-11-03T05:40:31.669Z,9.70
2017-11-03T05:42:57.975Z,9.70
2017-11-03T05:45:24.304Z,9.80
2017-11-03T05:47:51.316Z,9.80
2017-11-03T05:50:17.649Z,9.80
2017-11-03T05:52:43.936Z,9.80
2017-11-03T05:55:10.319Z,9.80
2017-11-03T05:57:37.523Z,9.80
2017-11-03T06:00:03.781Z,9.80
2017-11-03T06:02:30.055Z,9.80
2017-11-03T06:04:57.063Z,9.80
2017-11-03T06:07:23.324Z,9.80
2017-11-03T06:09:50.390Z,9.90
2017-11-03T06:12:16.846Z,9.90
2017-11-03T06:14:43.126Z,9.80
2017-11-03T06:17:10.183Z,9.80
2017-11-03T06:19:37.475Z,9.90
2017-11-03T06:22:04.547Z,9.90
2017-11-03T06:24:31.733Z,9.90
2017-11-03T06:26:58.724Z,9.90
2017-11-03T06:29:25.044Z,9.90
2017-11-03T06:31:52.341Z,10.10
2017-11-03T06:34:18.612Z,10.00
2017-11-03T06:36:45.637Z,10.00
2017-11-03T06:39:11.896Z,10.10
2017-11-03T06:41:38.269Z,10.10
2017-11-03T06:44:04.496Z,10.10
2017-11-03T06:46:30.765Z,10.00
2017-11-03T06:48:57.812Z,9.80
2017-11-03T06:51:24.880Z,9.90
2017-11-03T06:53:51.204Z,9.90
2017-11-03T06:56:18.200Z,10.00
2017-11-03T06:58:44.446Z,10.00
2017-11-03T07:01:10.746Z,10.10
2017-11-03T07:03:37.042Z,10.00
2017-11-03T07:06:04.065Z,10.10
2017-11-03T07:08:30.320Z,10.10
2017-11-03T07:10:57.345Z,10.30
2017-11-03T07:13:24.328Z,10.30
2017-11-03T07:15:50.613Z,10.30
2017-11-03T07:18:16.884Z,10.20
2017-11-03T07:20:43.174Z,10.30
2017-11-03T07:23:09.449Z,10.50
2017-11-03T07:25:35.842Z,10.40
2017-11-03T07:28:02.091Z,10.50
2017-11-03T07:30:30.073Z,10.70
2017-11-03T07:32:56.466Z,10.70
2017-11-03T07:35:22.722Z,10.70
2017-11-03T07:37:49.718Z,10.70
2017-11-03T07:40:16.015Z,10.60
2017-11-03T07:42:42.330Z,10.90
2017-11-03T07:45:09.606Z,10.90
2017-11-03T07:47:36.050Z,10.90
2017-11-03T07:50:02.347Z,11.00
2017-11-03T07:52:29.338Z,11.20
2017-11-03T07:54:55.624Z,11.20
2017-11-03T07:57:22.636Z,11.40
2017-11-03T07:59:48.903Z,11.40
2017-11-03T08:02:15.925Z,11.40
2017-11-03T08:04:43.089Z,11.40
2017-11-03T08:07:10.096Z,11.30
2017-11-03T08:09:36.404Z,11.30
2017-11-03T08:12:02.839Z,11.40
2017-11-03T08:14:29.151Z,11.40
2017-11-03T08:16:55.447Z,11.50
2017-11-03T08:19:21.773Z,11.60
2017-11-03T08:21:48.796Z,11.90
2017-11-03T08:24:15.068Z,11.80
2017-11-03T08:26:42.079Z,12.10
2017-11-03T08:29:08.561Z,12.10
2017-11-03T08:31:35.582Z,11.90
2017-11-03T08:34:02.695Z,11.90
2017-11-03T08:36:29.030Z,12.00
2017-11-03T08:38:55.292Z,12.00
2017-11-03T08:41:21.605Z,12.00
2017-11-03T08:43:48.020Z,12.00
2017-11-03T08:46:14.337Z,12.00
2017-11-03T08:48:40.778Z,12.30
2017-11-03T08:51:07.202Z,12.70
2017-11-03T08:53:33.552Z,12.80
2017-11-03T08:56:00.003Z,13.10
2017-11-03T08:58:26.326Z,12.20
2017-11-03T09:00:52.671Z,12.20
2017-11-03T09:03:19.062Z,12.30
2017-11-03T09:05:45.426Z,12.60
2017-11-03T09:08:11.744Z,12.70
2017-11-03T09:10:38.049Z,12.60
2017-11-03T09:13:04.784Z,12.70
2017-11-03T09:15:31.845Z,12.60
2017-11-03T09:17:58.277Z,12.60
2017-11-03T09:20:24.768Z,12.60
2017-11-03T09:22:51.196Z,12.80
2017-11-03T09:25:17.567Z,12.80
2017-11-03T09:27:44.658Z,13.10
2017-11-03T09:30:11.043Z,13.20
2017-11-03T09:32:38.113Z,13.50
2017-11-03T09:35:04.441Z,13.50
2017-11-03T09:37:30.797Z,13.50
2017-11-03T09:39:57.165Z,13.70
2017-11-03T09:42:23.456Z,13.70
2017-11-03T09:44:49.852Z,13.40
2017-11-03T09:47:17.206Z,13.90
2017-11-03T09:49:44.337Z,14.10
2017-11-03T09:52:10.657Z,14.10
2017-11-03T09:54:36.960Z,13.60
2017-11-03T09:57:03.477Z,13.00
2017-11-03T09:59:29.802Z,12.90
2017-11-03T10:01:56.153Z,12.70
2017-11-03T10:04:22.500Z,12.80
2017-11-03T10:06:48.976Z,12.90
2017-11-03T10:11:50.389Z,12.90
2017-11-03T10:14:16.726Z,12.90
2017-11-03T10:16:43.026Z,13.10
2017-11-03T10:19:09.356Z,13.10
2017-11-03T10:21:36.266Z,13.00
2017-11-03T10:24:02.643Z,13.30
2017-11-03T10:26:28.964Z,13.30
2017-11-03T10:28:55.288Z,13.40
2017-11-03T10:31:21.661Z,13.50
2017-11-03T10:33:48.001Z,13.60
2017-11-03T10:36:14.283Z,13.50
2017-11-03T10:38:40.630Z,13.80
2017-11-03T10:41:06.924Z,13.70
2017-11-03T10:43:33.239Z,14.00
2017-11-03T10:46:01.089Z,13.90
2017-11-03T10:48:27.475Z,13.90
2017-11-03T10:50:53.936Z,13.80
2017-11-03T10:53:20.202Z,13.90
2017-11-03T10:55:46.556Z,14.30
2017-11-03T10:58:13.613Z,15.80
2017-11-03T11:00:41.297Z,15.80
2017-11-03T11:03:07.668Z,15.80
2017-11-03T11:05:33.973Z,15.50
2017-11-03T11:08:01.139Z,15.10
2017-11-03T11:10:27.482Z,15.10
2017-11-03T11:12:54.588Z,15.00
2017-11-03T11:15:20.896Z,14.70
2017-11-03T11:17:47.928Z,14.10
2017-11-03T11:20:14.241Z,14.10
2017-11-03T11:22:40.508Z,14.10
2017-11-03T11:25:07.548Z,14.80
2017-11-03T11:27:34.577Z,15.20
2017-11-03T11:30:00.859Z,15.20
2017-11-03T11:32:27.157Z,15.60
2017-11-03T11:34:54.163Z,15.80
2017-11-03T11:37:20.462Z,15.80
2017-11-03T11:39:46.731Z,16.20
2017-11-03T11:42:13.073Z,16.30
2017-11-03T11:44:39.383Z,19.10
2017-11-03T11:47:05.720Z,22.50
2017-11-03T11:49:32.075Z,24.80
2017-11-03T11:51:59.088Z,25.40
2017-11-03T11:54:25.428Z,25.40
2017-11-03T11:56:51.859Z,24.60
2017-11-03T11:59:18.362Z,22.50
2017-11-03T12:01:44.694Z,21.00
2017-11-03T12:04:11.020Z,19.70
2017-11-03T12:06:37.310Z,18.70
2017-11-03T12:09:03.586Z,18.20
2017-11-03T12:11:29.928Z,17.40
2017-11-03T12:13:56.206Z,18.10
2017-11-03T12:16:23.981Z,24.50
2017-11-03T12:18:51.100Z,26.80
2017-11-03T12:21:17.399Z,26.70
2017-11-03T12:23:43.688Z,28.00
2017-11-03T12:26:10.878Z,30.00
2017-11-03T12:28:37.203Z,29.90
2017-11-03T12:31:03.573Z,30.60
2017-11-03T12:33:30.772Z,30.20
2017-11-03T12:35:57.854Z,30.00
2017-11-03T12:38:24.259Z,29.90
2017-11-03T12:40:53.482Z,29.90
2017-11-03T12:43:19.785Z,30.30
2017-11-03T12:45:46.092Z,30.30
2017-11-03T12:48:13.172Z,30.10
2017-11-03T12:50:39.513Z,30.00
2017-11-03T12:53:05.842Z,30.00
2017-11-03T12:55:32.276Z,29.20
2017-11-03T12:57:58.601Z,28.00
2017-11-03T13:00:25.408Z,27.60
2017-11-03T13:02:52.449Z,27.60
2017-11-03T13:05:19.505Z,27.40
2017-11-03T13:07:47.312Z,26.80
2017-11-03T13:10:13.639Z,26.70
2017-11-03T13:12:40.009Z,26.50
2017-11-03T13:15:06.343Z,25.50
2017-11-03T13:17:32.771Z,25.00
2017-11-03T13:19:59.129Z,25.80
2017-11-03T13:22:26.240Z,27.30
2017-11-03T13:24:52.575Z,27.30
2017-11-03T13:27:19.142Z,27.40
2017-11-03T13:29:45.463Z,27.80
2017-11-03T13:32:11.848Z,28.60
2017-11-03T13:34:38.268Z,29.60
2017-11-03T13:37:05.360Z,30.50
2017-11-03T13:39:31.709Z,30.50
2017-11-03T13:41:58.120Z,29.40
2017-11-03T13:44:24.417Z,28.60
2017-11-03T13:46:50.791Z,28.50
2017-11-03T13:49:17.125Z,30.10
2017-11-03T13:51:43.468Z,29.10
2017-11-03T13:54:10.798Z,29.00
2017-11-03T13:56:37.129Z,25.80
2017-11-03T13:59:03.577Z,25.60
2017-11-03T14:01:30.916Z,24.50
2017-11-03T14:03:57.249Z,22.30
2017-11-03T14:06:23.677Z,20.90
2017-11-03T14:08:50.106Z,19.80
2017-11-03T14:11:16.665Z,17.10
2017-11-03T14:13:42.983Z,16.10
2017-11-03T14:16:11.784Z,16.00
2017-11-03T14:18:38.096Z,16.00
2017-11-03T14:21:04.474Z,15.70
2017-11-03T14:23:31.630Z,15.90
2017-11-03T14:25:58.295Z,16.10
2017-11-03T14:28:24.736Z,16.00
2017-11-03T14:30:51.158Z,15.40
2017-11-03T14:33:17.507Z,15.10
2017-11-03T14:35:43.865Z,14.80
2017-11-03T14:38:10.632Z,14.70
2017-11-03T14:40:37.742Z,14.90
2017-11-03T14:43:04.420Z,14.80
2017-11-03T14:45:31.093Z,15.20
2017-11-03T14:47:57.458Z,15.50
2017-11-03T14:50:23.777Z,15.60
2017-11-03T14:52:50.258Z,15.60
2017-11-03T14:55:16.713Z,15.50
2017-11-03T14:57:43.229Z,15.70
2017-11-03T15:00:09.619Z,15.60
2017-11-03T15:02:36.017Z,15.30
2017-11-03T15:05:02.441Z,14.90
2017-11-03T15:07:29.584Z,14.50
2017-11-03T15:09:56.825Z,14.40
2017-11-03T15:12:23.377Z,14.40
2017-11-03T15:14:49.779Z,14.30
2017-11-03T15:17:16.294Z,14.00
2017-11-03T15:19:43.040Z,13.80
2017-11-03T15:22:09.525Z,13.50
2017-11-03T15:24:36.716Z,13.00
2017-11-03T15:27:03.049Z,12.90
2017-11-03T15:29:29.331Z,12.80
2017-11-03T15:31:55.654Z,12.70
2017-11-03T15:34:23.085Z,12.30
2017-11-03T15:36:50.072Z,12.30
2017-11-03T15:39:17.413Z,12.00
2017-11-03T15:41:44.549Z,11.90
2017-11-03T15:44:10.881Z,11.80
2017-11-03T15:46:37.216Z,11.70
2017-11-03T15:49:03.620Z,11.60
2017-11-03T15:51:31.007Z,11.50
2017-11-03T15:53:57.407Z,11.40
2017-11-03T15:56:23.939Z,11.30
2017-11-03T15:58:50.366Z,11.10
2017-11-03T16:01:16.805Z,11.00
2017-11-03T16:03:43.147Z,10.90
2017-11-03T16:06:09.596Z,10.70
2017-11-03T16:08:36.002Z,10.50
2017-11-03T16:11:02.361Z,10.40
2017-11-03T16:13:28.909Z,10.30
2017-11-03T16:15:55.304Z,10.20
2017-11-03T16:18:21.706Z,10.20
2017-11-03T16:20:48.831Z,10.10
2017-11-03T16:23:15.316Z,10.00
2017-11-03T16:25:41.712Z,10.00
2017-11-03T16:28:08.805Z,9.80
2017-11-03T16:30:35.181Z,9.80
2017-11-03T16:33:01.679Z,9.80
2017-11-03T16:35:28.389Z,9.70
2017-11-03T16:37:55.649Z,9.60
2017-11-03T16:40:22.006Z,9.60
2017-11-03T16:42:48.667Z,9.50
2017-11-03T16:45:15.834Z,9.40
2017-11-03T16:47:42.162Z,9.40
2017-11-03T16:50:08.638Z,9.30
2017-11-03T16:52:34.962Z,9.30
2017-11-03T16:55:01.340Z,9.20
2017-11-03T16:57:27.731Z,9.20
2017-11-03T16:59:54.307Z,9.10
2017-11-03T17:02:20.654Z,9.10
2017-11-03T17:04:46.958Z,9.00
2017-11-03T17:07:13.302Z,8.90
2017-11-03T17:09:39.632Z,8.80
2017-11-03T17:12:06.037Z,8.80
2017-11-03T17:14:33.366Z,8.60
2017-11-03T17:17:00.476Z,8.60
2017-11-03T17:19:26.857Z,8.50
2017-11-03T17:21:53.343Z,8.50
2017-11-03T17:24:19.974Z,8.50
2017-11-03T17:26:46.332Z,8.40
2017-11-03T17:29:13.657Z,8.40
2017-11-03T17:31:40.015Z,8.40
2017-11-03T17:34:07.100Z,8.30
2017-11-03T17:36:33.463Z,8.30
2017-11-03T17:38:59.848Z,8.20
2017-11-03T17:41:27.046Z,8.00
2017-11-03T17:43:53.722Z,8.00
2017-11-03T17:46:21.005Z,8.00
2017-11-03T17:48:47.608Z,7.90
2017-11-03T17:51:13.886Z,7.90
2017-11-03T17:53:40.507Z,7.90
2017-11-03T17:56:07.703Z,7.80
2017-11-03T17:58:34.493Z,7.80
2017-11-03T18:01:01.681Z,8.10
2017-11-03T18:03:28.171Z,8.00
2017-11-03T18:05:55.387Z,8.00
2017-11-03T18:08:21.785Z,8.00
2017-11-03T18:10:48.166Z,7.90
2017-11-03T18:13:16.094Z,7.70
2017-11-03T18:15:42.489Z,7.70
2017-11-03T18:18:09.563Z,7.60
2017-11-03T18:20:35.956Z,7.60
2017-11-03T18:23:02.256Z,7.60
2017-11-03T18:25:28.788Z,7.40
2017-11-03T18:27:55.244Z,7.50
2017-11-03T18:30:22.284Z,7.40
2017-11-03T18:32:49.251Z,7.30
2017-11-03T18:35:16.563Z,7.20
2017-11-03T18:37:48.359Z,7.20
2017-11-03T18:40:14.833Z,7.20
2017-11-03T18:42:41.262Z,7.20
2017-11-03T18:45:08.812Z,7.10
2017-11-03T18:47:35.908Z,7.00
2017-11-03T18:50:03.010Z,7.00
2017-11-03T18:52:30.262Z,6.90
2017-11-03T18:54:57.798Z,6.90
2017-11-03T18:57:24.349Z,6.90
2017-11-03T18:59:51.428Z,6.80
2017-11-03T19:02:19.960Z,6.80
2017-11-03T19:04:46.363Z,6.80
2017-11-03T19:07:12.800Z,6.80
2017-11-03T19:09:39.538Z,6.80
2017-11-03T19:12:06.062Z,6.70
2017-11-03T19:14:32.440Z,6.70
2017-11-03T19:16:58.821Z,6.70
2017-11-03T19:19:25.285Z,6.60
2017-11-03T19:21:51.699Z,6.60
2017-11-03T19:24:18.122Z,6.50
2017-11-03T19:26:44.511Z,6.50
2017-11-03T19:29:11.553Z,6.40
2017-11-03T19:31:38.042Z,6.40
2017-11-03T19:34:04.380Z,6.40
2017-11-03T19:36:31.139Z,6.20
2017-11-03T19:38:57.511Z,6.30
2017-11-03T19:41:24.632Z,6.20
2017-11-03T19:43:50.953Z,6.10
2017-11-03T19:46:17.328Z,6.20
2017-11-03T19:48:44.496Z,6.00
2017-11-03T19:51:10.915Z,6.00
2017-11-03T19:53:38.003Z,5.90
2017-11-03T19:56:04.406Z,5.90
2017-11-03T19:58:31.611Z,6.00
2017-11-03T20:00:58.240Z,6.00
2017-11-03T20:03:24.927Z,6.00
2017-11-03T20:05:52.242Z,6.00
2017-11-03T20:08:18.682Z,5.90
2017-11-03T20:10:45.642Z,5.80
2017-11-03T20:13:12.793Z,5.80
2017-11-03T20:15:39.994Z,5.80
2017-11-03T20:18:06.658Z,5.70
2017-11-03T20:20:33.111Z,5.70
2017-11-03T20:23:00.295Z,5.60
2017-11-03T20:25:27.460Z,5.60
2017-11-03T20:27:53.969Z,5.60
2017-11-03T20:30:21.138Z,5.60
2017-11-03T20:32:47.562Z,5.60
2017-11-03T20:35:14.022Z,5.60
2017-11-03T20:37:40.579Z,5.60
2017-11-03T20:40:06.947Z,5.60
2017-11-03T20:42:34.185Z,5.40
2017-11-03T20:45:00.690Z,5.40
2017-11-03T20:47:27.034Z,5.40
2017-11-03T20:49:53.408Z,5.30
2017-11-03T20:52:19.938Z,5.30
2017-11-03T20:54:47.148Z,5.20
2017-11-03T20:57:13.510Z,5.20
2017-11-03T20:59:40.150Z,5.20
2017-11-03T21:02:06.522Z,5.10
2017-11-03T21:04:33.769Z,5.10
2017-11-03T21:07:00.346Z,5.00
2017-11-03T21:09:26.768Z,5.00
2017-11-03T21:11:54.377Z,5.10
2017-11-03T21:14:21.533Z,5.00
2017-11-03T21:16:47.997Z,5.00
2017-11-03T21:19:14.638Z,5.10
2017-11-03T21:21:41.240Z,5.10
2017-11-03T21:24:08.588Z,5.20
2017-11-03T21:26:35.762Z,5.20
2017-11-03T21:29:02.055Z,5.20
2017-11-03T21:31:29.406Z,5.20
2017-11-03T21:33:55.912Z,5.20
2017-11-03T21:36:22.420Z,5.00
2017-11-03T21:38:48.837Z,4.90
2017-11-03T21:41:15.924Z,5.00
2017-11-03T21:43:42.290Z,5.00
2017-11-03T21:46:08.852Z,5.10
2017-11-03T21:48:35.505Z,5.20
2017-11-03T21:51:02.793Z,5.20
2017-11-03T21:53:30.315Z,5.20
2017-11-03T21:55:57.504Z,5.20
2017-11-03T21:58:24.727Z,5.20
2017-11-03T22:00:53.279Z,5.20
2017-11-03T22:03:19.715Z,5.20
2017-11-03T22:05:46.127Z,5.20
2017-11-03T22:08:12.482Z,5.10
2017-11-03T22:10:39.584Z,5.10
2017-11-03T22:13:05.942Z,5.10
2017-11-03T22:15:32.399Z,5.00
2017-11-03T22:17:58.818Z,5.00
2017-11-03T22:20:25.285Z,5.00
2017-11-03T22:22:51.576Z,5.00
2017-11-03T22:25:17.956Z,5.00
2017-11-03T22:27:44.316Z,5.00
2017-11-03T22:30:11.010Z,5.00
2017-11-03T22:32:38.142Z,5.00
2017-11-03T22:35:05.339Z,5.00
2017-11-03T22:37:31.887Z,5.00
2017-11-03T22:39:58.425Z,5.00
2017-11-03T22:42:24.801Z,5.00
2017-11-03T22:44:51.105Z,5.00
2017-11-03T22:47:17.540Z,4.90
2017-11-03T22:49:43.869Z,5.00
2017-11-03T22:52:10.232Z,5.00
2017-11-03T22:54:36.776Z,4.90
2017-11-03T22:57:03.898Z,4.90
2017-11-03T22:59:30.210Z,4.90
2017-11-03T23:01:57.680Z,4.90
2017-11-03T23:04:24.054Z,4.80
2017-11-03T23:06:51.109Z,4.80
2017-11-03T23:09:18.297Z,4.80
2017-11-03T23:11:44.679Z,4.80
2017-11-03T23:14:11.751Z,4.80
2017-11-03T23:16:38.186Z,4.80
2017-11-03T23:19:04.620Z,4.80
2017-11-03T23:21:30.984Z,4.80
2017-11-03T23:23:57.344Z,4.80
2017-11-03T23:26:23.804Z,4.70
2017-11-03T23:28:50.181Z,4.70
2017-11-03T23:31:16.537Z,4.70
2017-11-03T23:33:43.007Z,4.70
2017-11-03T23:36:09.329Z,4.80
2017-11-03T23:38:36.894Z,4.80
2017-11-03T23:41:03.269Z,4.80
2017-11-03T23:43:29.701Z,4.80
2017-11-03T23:45:56.042Z,4.90
2017-11-03T23:48:22.429Z,4.90
2017-11-03T23:50:48.728Z,4.80
2017-11-03T23:53:15.231Z,4.80
2017-11-03T23:55:41.634Z,4.80
2017-11-03T23:58:08.020Z,4.70
